createdAt,value
2019-03-10T00:00:37.607Z,62.56
2019-03-10T00:03:07.049Z,63.49
2019-03-10T00:05:36.931Z,63.68
2019-03-10T00:08:08.012Z,63.63
2019-03-10T00:10:35.668Z,63.74
2019-03-10T00:13:05.025Z,63.66
2019-03-10T00:15:34.403Z,63.38
2019-03-10T00:18:03.909Z,63.61
2019-03-10T00:20:33.261Z,62.91
2019-03-10T00:23:02.619Z,62.22
2019-03-10T00:25:32.009Z,62.02
2019-03-10T00:28:01.432Z,62.06
2019-03-10T00:30:30.804Z,62.38
2019-03-10T00:33:00.162Z,62.20
2019-03-10T00:35:36.033Z,62.38
2019-03-10T00:38:05.458Z,62.28
2019-03-10T00:40:52.635Z,62.05
2019-03-10T00:44:42.312Z,62.42
2019-03-10T00:47:28.478Z,62.31
2019-03-10T00:51:31.503Z,62.64
2019-03-10T00:54:00.805Z,63.30
2019-03-10T00:56:30.129Z,63.08
2019-03-10T00:58:59.560Z,64.18
2019-03-10T01:01:28.936Z,64.90
2019-03-10T01:03:58.270Z,65.13
2019-03-10T01:06:27.658Z,65.22
2019-03-10T01:08:57.063Z,65.60
2019-03-10T01:11:27.009Z,65.61
2019-03-10T01:13:56.300Z,65.80
2019-03-10T01:16:25.652Z,66.37
2019-03-10T01:18:55.448Z,65.46
2019-03-10T01:21:24.889Z,65.48
2019-03-10T01:23:54.248Z,65.08
2019-03-10T01:26:23.569Z,65.39
2019-03-10T01:28:52.825Z,65.47
2019-03-10T01:31:36.720Z,65.49
2019-03-10T01:34:26.692Z,65.27
2019-03-10T01:36:56.072Z,65.33
2019-03-10T01:39:25.494Z,65.44
2019-03-10T01:41:54.824Z,65.58
2019-03-10T01:44:24.233Z,65.60
2019-03-10T01:46:53.617Z,65.84
2019-03-10T01:49:23.031Z,65.54
2019-03-10T01:51:53.297Z,65.68
2019-03-10T01:54:22.733Z,66.01
2019-03-10T01:56:51.958Z,66.31
2019-03-10T01:59:21.291Z,65.92
2019-03-10T02:01:50.609Z,66.54
2019-03-10T02:04:19.930Z,67.07
2019-03-10T02:06:49.277Z,66.11
2019-03-10T02:09:18.680Z,66.10
2019-03-10T02:11:47.983Z,66.46
2019-03-10T02:14:17.262Z,66.82
2019-03-10T02:16:46.973Z,66.71
2019-03-10T02:19:16.310Z,66.41
2019-03-10T02:21:45.723Z,66.23
2019-03-10T02:24:23.468Z,66.64
2019-03-10T02:26:44.432Z,66.18
2019-03-10T02:29:13.811Z,66.07
2019-03-10T02:31:43.166Z,66.10
2019-03-10T02:34:12.568Z,66.51
2019-03-10T02:36:41.971Z,67.08
2019-03-10T02:39:11.218Z,67.07
2019-03-10T02:41:40.635Z,66.81
2019-03-10T02:44:09.960Z,67.36
2019-03-10T02:46:39.452Z,67.68
2019-03-10T02:49:08.697Z,68.10
2019-03-10T02:51:38.942Z,68.60
2019-03-10T02:54:08.234Z,68.70
2019-03-10T02:56:37.546Z,68.91
2019-03-10T02:59:06.985Z,69.05
2019-03-10T03:01:36.150Z,68.82
2019-03-10T03:04:05.533Z,69.01
2019-03-10T03:06:34.913Z,68.38
2019-03-10T03:09:05.557Z,69.37
2019-03-10T03:11:34.834Z,69.22
2019-03-10T03:14:04.260Z,68.91
2019-03-10T03:16:33.613Z,69.03
2019-03-10T03:19:02.933Z,68.87
2019-03-10T03:21:43.053Z,69.28
2019-03-10T03:24:02.029Z,69.55
2019-03-10T03:26:31.346Z,69.20
2019-03-10T03:29:00.669Z,69.76
2019-03-10T03:31:29.993Z,69.47
2019-03-10T03:33:59.303Z,69.98
2019-03-10T03:36:33.227Z,69.84
2019-03-10T03:39:19.549Z,69.75
2019-03-10T03:41:48.862Z,69.60
2019-03-10T03:44:18.297Z,69.90
2019-03-10T03:46:47.661Z,70.08
2019-03-10T03:49:17.467Z,71.03
2019-03-10T03:51:46.861Z,71.89
2019-03-10T03:54:16.184Z,72.06
2019-03-10T03:56:45.584Z,72.88
2019-03-10T03:59:15.036Z,73.46
2019-03-10T04:01:47.892Z,74.23
2019-03-10T04:04:17.863Z,74.72
2019-03-10T04:06:47.368Z,75.72
2019-03-10T04:09:16.677Z,76.10
2019-03-10T04:11:46.017Z,77.52
2019-03-10T04:14:15.368Z,78.16
2019-03-10T04:16:45.342Z,78.33
2019-03-10T04:19:14.676Z,79.41
2019-03-10T04:21:44.035Z,80.53
2019-03-10T04:24:13.389Z,80.58
2019-03-10T04:26:42.905Z,81.05
2019-03-10T04:29:12.205Z,82.01
2019-03-10T04:31:41.549Z,82.55
2019-03-10T04:34:10.913Z,81.35
2019-03-10T04:36:40.277Z,83.46
2019-03-10T04:39:09.672Z,83.41
2019-03-10T04:41:39.008Z,84.31
2019-03-10T04:44:08.406Z,83.62
2019-03-10T04:46:38.900Z,83.85
2019-03-10T04:49:08.232Z,83.57
2019-03-10T04:51:37.617Z,83.19
2019-03-10T04:54:06.938Z,82.90
2019-03-10T04:56:50.552Z,83.87
2019-03-10T04:59:20.023Z,83.86
2019-03-10T05:01:49.361Z,86.41
2019-03-10T05:04:18.707Z,87.10
2019-03-10T05:06:48.176Z,88.44
2019-03-10T05:09:17.525Z,88.67
2019-03-10T05:11:46.796Z,89.33
2019-03-10T05:14:16.111Z,89.55
2019-03-10T05:16:45.399Z,90.04
2019-03-10T05:19:14.788Z,90.21
2019-03-10T05:21:44.183Z,90.26
2019-03-10T05:24:16.044Z,90.49
2019-03-10T05:26:45.347Z,90.02
2019-03-10T05:29:14.728Z,89.91
2019-03-10T05:31:44.099Z,89.76
2019-03-10T05:34:13.427Z,89.92
2019-03-10T05:36:42.787Z,90.72
2019-03-10T05:39:12.168Z,90.49
2019-03-10T05:41:42.179Z,90.73
2019-03-10T05:44:11.575Z,90.96
2019-03-10T05:46:40.972Z,90.75
2019-03-10T05:49:10.337Z,91.12
2019-03-10T05:51:40.284Z,91.20
2019-03-10T05:54:09.572Z,90.97
2019-03-10T05:56:39.557Z,91.40
2019-03-10T05:59:08.877Z,91.06
2019-03-10T06:01:38.164Z,90.88
2019-03-10T06:04:07.483Z,91.04
2019-03-10T06:06:36.755Z,90.12
2019-03-10T06:09:07.340Z,90.56
2019-03-10T06:11:36.581Z,90.46
2019-03-10T06:14:06.769Z,90.54
2019-03-10T06:16:36.607Z,90.54
2019-03-10T06:19:05.911Z,90.30
2019-03-10T06:21:35.271Z,90.88
2019-03-10T06:24:04.544Z,91.25
2019-03-10T06:26:33.856Z,91.30
2019-03-10T06:29:03.192Z,91.01
2019-03-10T06:31:32.479Z,90.71
2019-03-10T06:34:01.751Z,90.52
2019-03-10T06:36:31.132Z,90.16
2019-03-10T06:39:00.454Z,90.08
2019-03-10T06:41:29.945Z,89.56
2019-03-10T06:43:59.272Z,89.53
2019-03-10T06:46:28.687Z,89.24
2019-03-10T06:48:58.024Z,89.62
2019-03-10T06:51:27.412Z,89.16
2019-03-10T06:53:57.302Z,89.20
2019-03-10T06:56:26.660Z,89.05
2019-03-10T06:58:56.040Z,88.85
2019-03-10T07:01:25.368Z,89.01
2019-03-10T07:03:54.631Z,89.14
2019-03-10T07:06:23.958Z,89.39
2019-03-10T07:08:53.283Z,89.90
2019-03-10T07:11:22.555Z,90.18
2019-03-10T07:13:51.888Z,89.96
2019-03-10T07:16:21.155Z,89.65
2019-03-10T07:18:50.563Z,89.86
2019-03-10T07:21:19.948Z,89.68
2019-03-10T07:23:49.252Z,89.59
2019-03-10T07:26:18.608Z,89.79
2019-03-10T07:28:54.949Z,89.70
2019-03-10T07:31:29.965Z,89.98
2019-03-10T07:34:03.341Z,89.74
2019-03-10T07:36:38.673Z,89.70
2019-03-10T07:39:18.588Z,89.90
2019-03-10T07:41:54.968Z,90.14
2019-03-10T07:44:31.746Z,90.07
2019-03-10T07:47:05.976Z,89.58
2019-03-10T07:49:39.340Z,89.14
2019-03-10T07:52:21.836Z,88.85
2019-03-10T07:55:30.585Z,89.38
2019-03-10T07:58:05.034Z,88.79
2019-03-10T08:00:39.769Z,89.18
2019-03-10T08:03:21.212Z,89.09
2019-03-10T08:07:02.164Z,88.61
2019-03-10T08:11:39.060Z,88.76
2019-03-10T08:14:16.357Z,88.52
2019-03-10T08:16:50.909Z,88.76
2019-03-10T08:19:27.148Z,88.93
2019-03-10T08:24:08.663Z,88.73
2019-03-10T08:28:46.269Z,88.63
2019-03-10T08:31:53.879Z,87.89
2019-03-10T08:34:28.360Z,87.40
2019-03-10T08:38:07.560Z,87.91
2019-03-10T08:40:43.845Z,87.25
2019-03-10T08:43:21.260Z,87.18
2019-03-10T08:45:54.651Z,87.28
2019-03-10T08:48:29.863Z,86.89
2019-03-10T08:51:04.083Z,87.50
2019-03-10T08:53:39.515Z,87.29
2019-03-10T08:56:18.838Z,86.36
2019-03-10T08:59:04.208Z,86.73
2019-03-10T09:02:09.776Z,87.22
2019-03-10T09:05:42.152Z,87.63
2019-03-10T09:08:20.686Z,86.39
2019-03-10T09:10:57.001Z,86.79
2019-03-10T09:13:33.476Z,86.07
2019-03-10T09:16:23.915Z,86.24
2019-03-10T09:18:58.284Z,86.07
2019-03-10T09:21:33.749Z,86.28
2019-03-10T09:25:06.901Z,86.54
2019-03-10T09:27:41.200Z,85.96
2019-03-10T09:30:20.904Z,86.34
2019-03-10T09:34:59.837Z,86.51
2019-03-10T09:37:33.268Z,86.33
2019-03-10T09:40:08.361Z,86.88
2019-03-10T09:42:43.958Z,87.73
2019-03-10T09:45:19.540Z,88.00
2019-03-10T09:48:05.284Z,87.91
2019-03-10T09:51:10.808Z,88.25
2019-03-10T09:53:47.142Z,87.17
2019-03-10T09:56:20.564Z,87.02
2019-03-10T09:59:05.400Z,86.61
2019-03-10T10:01:39.998Z,86.71
2019-03-10T10:04:15.333Z,84.83
2019-03-10T10:06:50.589Z,85.16
2019-03-10T10:09:35.105Z,84.01
2019-03-10T10:12:13.741Z,82.95
2019-03-10T10:14:48.896Z,83.39
2019-03-10T10:17:56.147Z,83.93
2019-03-10T10:20:32.158Z,84.11
2019-03-10T10:23:06.421Z,83.75
2019-03-10T10:25:41.873Z,82.84
2019-03-10T10:28:17.857Z,82.85
2019-03-10T10:30:59.353Z,80.54
2019-03-10T10:33:36.650Z,80.54
2019-03-10T10:38:18.907Z,79.30
2019-03-10T10:41:51.697Z,79.01
2019-03-10T10:44:31.291Z,86.91
2019-03-10T10:47:08.611Z,90.02
2019-03-10T10:49:43.679Z,91.62
2019-03-10T10:52:17.143Z,91.56
2019-03-10T10:56:54.173Z,90.19
2019-03-10T11:00:28.217Z,86.07
2019-03-10T11:03:04.773Z,84.98
2019-03-10T11:05:41.334Z,83.87
2019-03-10T11:08:23.438Z,84.68
2019-03-10T11:10:56.917Z,83.94
2019-03-10T11:13:35.682Z,84.21
2019-03-10T11:16:25.645Z,82.38
2019-03-10T11:19:05.627Z,77.16
2019-03-10T11:21:42.071Z,77.17
2019-03-10T11:24:17.060Z,76.80
2019-03-10T11:26:54.625Z,74.95
2019-03-10T11:29:29.232Z,74.78
2019-03-10T11:33:03.491Z,73.85
2019-03-10T11:35:39.773Z,69.74
2019-03-10T11:38:22.196Z,71.64
2019-03-10T11:41:05.622Z,69.07
2019-03-10T11:43:41.245Z,67.86
2019-03-10T11:46:26.170Z,68.43
2019-03-10T11:49:00.710Z,69.92
2019-03-10T11:51:35.225Z,68.26
2019-03-10T11:54:14.484Z,66.44
2019-03-10T11:57:46.748Z,67.59
2019-03-10T12:00:23.260Z,66.24
2019-03-10T12:04:02.139Z,68.10
2019-03-10T12:06:36.960Z,72.84
2019-03-10T12:09:20.689Z,76.36
2019-03-10T12:11:50.813Z,78.41
2019-03-10T12:14:20.653Z,75.57
2019-03-10T12:16:50.110Z,73.30
2019-03-10T12:19:19.509Z,73.38
2019-03-10T12:21:49.050Z,73.75
2019-03-10T12:24:21.240Z,74.54
2019-03-10T12:26:50.637Z,75.26
2019-03-10T12:29:20.846Z,74.54
2019-03-10T12:31:50.387Z,74.14
2019-03-10T12:34:19.696Z,71.98
2019-03-10T12:36:49.672Z,71.22
2019-03-10T12:39:18.985Z,72.27
2019-03-10T12:41:57.995Z,66.99
2019-03-10T12:44:17.805Z,65.72
2019-03-10T12:46:48.829Z,61.32
2019-03-10T12:49:18.627Z,59.87
2019-03-10T12:51:48.257Z,60.11
2019-03-10T12:54:17.610Z,55.75
2019-03-10T12:56:46.998Z,55.70
2019-03-10T12:59:16.404Z,55.19
2019-03-10T13:01:45.829Z,55.67
2019-03-10T13:04:15.153Z,55.25
2019-03-10T13:06:48.527Z,56.67
2019-03-10T13:09:18.247Z,56.02
2019-03-10T13:11:47.618Z,54.83
2019-03-10T13:14:17.209Z,52.49
2019-03-10T13:16:46.531Z,52.16
2019-03-10T13:19:16.709Z,50.64
2019-03-10T13:21:46.216Z,50.59
2019-03-10T13:24:15.464Z,51.38
2019-03-10T13:26:44.888Z,50.31
2019-03-10T13:29:14.211Z,50.49
2019-03-10T13:31:43.554Z,51.24
2019-03-10T13:34:12.969Z,49.76
2019-03-10T13:36:42.338Z,50.04
2019-03-10T13:39:11.836Z,48.19
2019-03-10T13:41:41.201Z,47.73
2019-03-10T13:44:10.785Z,48.28
2019-03-10T13:46:40.224Z,47.87
2019-03-10T13:49:09.728Z,48.05
2019-03-10T13:51:39.545Z,47.93
2019-03-10T13:54:08.920Z,47.75
2019-03-10T13:56:40.169Z,46.36
2019-03-10T13:59:09.504Z,44.17
2019-03-10T14:01:39.421Z,43.79
2019-03-10T14:04:08.830Z,43.23
2019-03-10T14:06:38.895Z,40.12
2019-03-10T14:09:08.780Z,40.17
2019-03-10T14:11:38.210Z,39.37
2019-03-10T14:14:07.612Z,38.63
2019-03-10T14:16:37.013Z,37.69
2019-03-10T14:19:07.083Z,37.66
2019-03-10T14:21:36.469Z,36.52
2019-03-10T14:24:05.856Z,34.90
2019-03-10T14:26:35.544Z,34.32
2019-03-10T14:29:04.948Z,34.37
2019-03-10T14:31:34.354Z,33.18
2019-03-10T14:34:04.342Z,33.47
2019-03-10T14:36:33.661Z,32.79
2019-03-10T14:39:04.687Z,33.41
2019-03-10T14:41:32.464Z,33.33
2019-03-10T14:44:02.405Z,32.52
2019-03-10T14:46:31.786Z,33.48
2019-03-10T14:49:01.207Z,32.45
2019-03-10T14:51:30.530Z,32.74
2019-03-10T14:54:00.850Z,31.96
2019-03-10T14:56:30.254Z,30.02
2019-03-10T14:58:59.632Z,31.54
2019-03-10T15:01:28.972Z,31.99
2019-03-10T15:03:58.352Z,32.50
2019-03-10T15:06:27.681Z,32.84
2019-03-10T15:08:57.072Z,34.40
2019-03-10T15:11:26.450Z,32.17
2019-03-10T15:13:55.746Z,33.09
2019-03-10T15:16:25.541Z,32.50
2019-03-10T15:18:54.815Z,34.36
2019-03-10T15:21:24.708Z,34.44
2019-03-10T15:23:54.025Z,31.42
2019-03-10T15:26:23.397Z,31.74
2019-03-10T15:28:52.777Z,33.23
2019-03-10T15:31:22.089Z,33.71
2019-03-10T15:33:51.536Z,26.60
2019-03-10T15:36:21.037Z,25.61
2019-03-10T15:38:50.401Z,28.96
2019-03-10T15:41:19.727Z,30.51
2019-03-10T15:43:49.085Z,31.29
2019-03-10T15:46:18.484Z,33.07
2019-03-10T15:48:47.776Z,34.17
2019-03-10T15:51:17.128Z,34.52
2019-03-10T15:53:47.480Z,34.51
2019-03-10T15:56:16.839Z,35.94
2019-03-10T15:58:46.824Z,35.65
2019-03-10T16:01:16.270Z,35.84
2019-03-10T16:03:46.887Z,35.61
2019-03-10T16:06:16.219Z,35.99
2019-03-10T16:08:45.625Z,36.42
2019-03-10T16:11:14.925Z,35.97
2019-03-10T16:13:44.864Z,35.65
2019-03-10T16:16:14.168Z,37.23
2019-03-10T16:18:43.559Z,36.79
2019-03-10T16:21:12.896Z,35.97
2019-03-10T16:23:42.268Z,36.14
2019-03-10T16:26:11.659Z,36.21
2019-03-10T16:28:41.125Z,36.05
2019-03-10T16:31:10.455Z,36.22
2019-03-10T16:33:40.615Z,36.21
2019-03-10T16:36:09.927Z,36.74
2019-03-10T16:38:39.332Z,36.22
2019-03-10T16:41:08.727Z,36.25
2019-03-10T16:43:38.059Z,35.78
2019-03-10T16:46:07.464Z,36.00
2019-03-10T16:48:36.799Z,35.69
2019-03-10T16:51:06.519Z,36.19
2019-03-10T16:53:35.908Z,36.05
2019-03-10T16:56:06.232Z,36.42
2019-03-10T16:58:35.528Z,37.04
2019-03-10T17:01:05.016Z,37.23
2019-03-10T17:03:34.368Z,37.31
2019-03-10T17:06:03.705Z,37.76
2019-03-10T17:08:33.133Z,38.23
2019-03-10T17:11:02.428Z,38.41
2019-03-10T17:13:31.828Z,38.07
2019-03-10T17:16:01.239Z,39.35
2019-03-10T17:18:31.333Z,39.05
2019-03-10T17:21:00.680Z,39.15
2019-03-10T17:23:29.967Z,39.68
2019-03-10T17:25:59.268Z,40.18
2019-03-10T17:28:29.682Z,40.38
2019-03-10T17:30:59.049Z,40.50
2019-03-10T17:33:28.869Z,40.28
2019-03-10T17:35:58.305Z,41.18
2019-03-10T17:38:28.376Z,40.92
2019-03-10T17:40:57.805Z,42.01
2019-03-10T17:43:27.355Z,41.82
2019-03-10T17:45:56.660Z,42.33
2019-03-10T17:48:26.913Z,42.02
2019-03-10T17:50:56.549Z,42.70
2019-03-10T17:53:26.372Z,42.45
2019-03-10T17:55:55.804Z,42.30
2019-03-10T17:58:25.256Z,43.22
2019-03-10T18:00:54.672Z,43.21
2019-03-10T18:03:24.219Z,44.21
2019-03-10T18:05:53.679Z,45.06
2019-03-10T18:08:23.329Z,45.06
2019-03-10T18:10:52.764Z,44.83
2019-03-10T18:13:22.648Z,45.82
2019-03-10T18:15:52.390Z,45.68
2019-03-10T18:18:21.738Z,45.86
2019-03-10T18:20:51.089Z,46.02
2019-03-10T18:23:21.037Z,46.33
2019-03-10T18:25:50.419Z,47.08
2019-03-10T18:28:19.795Z,49.28
2019-03-10T18:30:49.201Z,50.52
2019-03-10T18:33:18.616Z,58.87
2019-03-10T18:35:48.173Z,60.93
2019-03-10T18:38:17.584Z,66.92
2019-03-10T18:40:46.876Z,66.61
2019-03-10T18:43:16.143Z,68.29
2019-03-10T18:45:46.039Z,73.34
2019-03-10T18:48:15.367Z,91.29
2019-03-10T18:50:44.692Z,91.57
2019-03-10T18:53:13.959Z,91.65
2019-03-10T18:55:43.239Z,88.24
2019-03-10T18:58:13.054Z,72.06
2019-03-10T19:00:42.384Z,68.51
2019-03-10T19:03:34.415Z,67.90
2019-03-10T19:06:03.857Z,65.43
2019-03-10T19:08:33.187Z,61.46
2019-03-10T19:11:02.614Z,62.28
2019-03-10T19:13:31.929Z,60.55
2019-03-10T19:16:01.269Z,61.35
2019-03-10T19:18:30.665Z,61.76
2019-03-10T19:21:00.076Z,59.88
2019-03-10T19:23:29.438Z,59.83
2019-03-10T19:25:58.716Z,60.12
2019-03-10T19:28:28.046Z,59.73
2019-03-10T19:30:58.133Z,60.44
2019-03-10T19:33:27.454Z,59.39
2019-03-10T19:35:56.821Z,59.27
2019-03-10T19:38:26.120Z,60.25
2019-03-10T19:40:55.416Z,60.08
2019-03-10T19:43:24.800Z,59.82
2019-03-10T19:45:54.198Z,59.84
2019-03-10T19:48:23.643Z,60.10
2019-03-10T19:50:52.970Z,60.69
2019-03-10T19:53:22.276Z,60.70
2019-03-10T19:55:51.673Z,61.62
2019-03-10T19:58:21.169Z,62.36
2019-03-10T20:00:50.511Z,63.28
2019-03-10T20:03:19.912Z,63.68
2019-03-10T20:05:49.344Z,63.85
2019-03-10T20:08:18.686Z,64.36
2019-03-10T20:10:49.075Z,64.75
2019-03-10T20:13:18.424Z,64.68
2019-03-10T20:15:49.213Z,63.84
2019-03-10T20:18:18.633Z,64.30
2019-03-10T20:20:47.991Z,65.58
2019-03-10T20:23:17.365Z,69.66
2019-03-10T20:25:47.252Z,70.54
2019-03-10T20:28:17.491Z,68.99
2019-03-10T20:30:47.367Z,68.84
2019-03-10T20:33:16.729Z,67.92
2019-03-10T20:35:46.254Z,66.91
2019-03-10T20:38:15.625Z,66.50
2019-03-10T20:40:45.892Z,67.87
2019-03-10T20:43:15.280Z,69.05
2019-03-10T20:45:44.696Z,67.30
2019-03-10T20:48:14.009Z,66.46
2019-03-10T20:50:43.383Z,65.70
2019-03-10T20:53:12.765Z,66.72
2019-03-10T20:55:42.090Z,65.53
2019-03-10T20:58:11.419Z,65.92
2019-03-10T21:00:40.759Z,66.11
2019-03-10T21:03:10.066Z,66.93
2019-03-10T21:05:39.335Z,66.24
2019-03-10T21:08:08.695Z,65.86
2019-03-10T21:10:38.070Z,66.38
2019-03-10T21:13:07.420Z,65.54
2019-03-10T21:15:36.739Z,64.74
2019-03-10T21:18:06.040Z,63.29
2019-03-10T21:20:35.303Z,63.32
2019-03-10T21:23:05.101Z,62.16
2019-03-10T21:25:34.509Z,72.07
2019-03-10T21:28:03.814Z,72.76
2019-03-10T21:30:33.156Z,71.04
2019-03-10T21:33:02.459Z,68.70
2019-03-10T21:35:33.352Z,68.09
2019-03-10T21:38:01.196Z,69.65
2019-03-10T21:40:30.694Z,70.06
2019-03-10T21:42:59.995Z,70.35
2019-03-10T21:45:29.412Z,68.75
2019-03-10T21:47:58.715Z,69.06
2019-03-10T21:50:28.099Z,68.77
2019-03-10T21:52:57.477Z,69.68
2019-03-10T21:55:26.826Z,68.62
2019-03-10T21:57:56.237Z,68.62
2019-03-10T22:00:25.815Z,68.87
2019-03-10T22:02:55.128Z,69.29
2019-03-10T22:05:25.495Z,69.16
2019-03-10T22:07:54.824Z,68.50
2019-03-10T22:10:27.476Z,68.47
2019-03-10T22:12:53.718Z,69.03
2019-03-10T22:15:23.180Z,69.27
2019-03-10T22:17:52.557Z,69.46
2019-03-10T22:20:21.927Z,68.94
2019-03-10T22:22:51.347Z,69.74
2019-03-10T22:25:20.642Z,69.37
2019-03-10T22:27:49.958Z,69.66
2019-03-10T22:30:19.931Z,69.38
2019-03-10T22:32:49.296Z,70.02
2019-03-10T22:35:18.665Z,69.32
2019-03-10T22:37:49.912Z,68.76
2019-03-10T22:40:19.339Z,68.43
2019-03-10T22:42:48.752Z,68.17
2019-03-10T22:45:18.099Z,67.81
2019-03-10T22:47:47.455Z,67.14
2019-03-10T22:50:17.124Z,66.34
2019-03-10T22:52:46.450Z,66.38
2019-03-10T22:55:16.874Z,65.21
2019-03-10T22:57:46.235Z,64.28
2019-03-10T23:00:18.500Z,63.54
2019-03-10T23:02:47.895Z,62.84
2019-03-10T23:05:17.184Z,62.22
2019-03-10T23:07:46.512Z,61.22
2019-03-10T23:10:15.794Z,60.74
2019-03-10T23:12:51.794Z,60.77
2019-03-10T23:15:21.137Z,59.95
2019-03-10T23:17:51.348Z,59.38
2019-03-10T23:20:21.733Z,59.07
2019-03-10T23:22:51.183Z,58.78
2019-03-10T23:25:20.706Z,58.50
2019-03-10T23:27:50.249Z,58.58
2019-03-10T23:30:19.671Z,57.84
2019-03-10T23:32:49.071Z,57.79
2019-03-10T23:35:18.427Z,58.37
2019-03-10T23:37:47.757Z,58.02
2019-03-10T23:40:17.170Z,57.76
2019-03-10T23:42:47.528Z,57.91
2019-03-10T23:45:16.893Z,59.01
2019-03-10T23:47:46.205Z,58.55
2019-03-10T23:50:15.607Z,58.41
2019-03-10T23:52:44.941Z,58.33
2019-03-10T23:55:15.196Z,59.14
2019-03-10T23:57:44.575Z,59.59
